createdAt,value
2017-07-08T00:00:04.121Z,0.40
2017-07-08T00:02:31.735Z,0.77
2017-07-08T00:04:59.030Z,0.63
2017-07-08T00:07:26.316Z,0.67
2017-07-08T00:09:53.638Z,1.73
2017-07-08T00:12:20.928Z,1.03
2017-07-08T00:14:48.255Z,0.50
2017-07-08T00:17:15.606Z,6.90
2017-07-08T00:19:42.950Z,0.70
2017-07-08T00:22:10.252Z,0.70
2017-07-08T00:24:37.606Z,0.40
2017-07-08T00:27:04.899Z,2.13
2017-07-08T00:29:32.220Z,0.70
2017-07-08T00:31:59.515Z,0.30
2017-07-08T00:34:27.857Z,0.40
2017-07-08T00:36:55.150Z,0.87
2017-07-08T00:39:22.480Z,0.40
2017-07-08T00:41:49.809Z,0.40
2017-07-08T00:44:17.168Z,1.50
2017-07-08T00:46:44.441Z,0.70
2017-07-08T00:49:11.743Z,0.50
2017-07-08T00:51:39.494Z,1.57
2017-07-08T00:54:06.789Z,4.43
2017-07-08T00:56:34.111Z,0.30
2017-07-08T00:59:01.415Z,1.60
2017-07-08T01:01:28.990Z,0.40
2017-07-08T01:03:56.296Z,0.40
2017-07-08T01:06:23.630Z,0.50
2017-07-08T01:08:50.932Z,0.50
2017-07-08T01:11:18.283Z,1.17
2017-07-08T01:13:45.562Z,0.40
2017-07-08T01:16:12.927Z,0.30
2017-07-08T01:18:40.242Z,0.50
2017-07-08T01:21:07.587Z,5.80
2017-07-08T01:23:34.933Z,0.60
2017-07-08T01:26:02.259Z,0.50
2017-07-08T01:28:29.849Z,0.40
2017-07-08T01:30:57.151Z,1.80
2017-07-08T01:33:24.488Z,0.90
2017-07-08T01:35:51.794Z,0.70
2017-07-08T01:38:19.118Z,0.70
2017-07-08T01:40:46.413Z,0.50
2017-07-08T01:43:13.726Z,0.40
2017-07-08T01:45:41.017Z,0.40
2017-07-08T01:48:08.328Z,0.70
2017-07-08T01:50:35.630Z,0.40
2017-07-08T01:53:02.926Z,0.40
2017-07-08T01:55:30.260Z,0.57
2017-07-08T01:57:57.614Z,2.87
2017-07-08T02:00:24.960Z,0.50
2017-07-08T02:02:52.259Z,0.40
2017-07-08T02:05:19.571Z,1.27
2017-07-08T02:07:46.871Z,0.80
2017-07-08T02:10:14.209Z,0.30
2017-07-08T02:12:41.542Z,0.40
2017-07-08T02:15:08.889Z,0.70
2017-07-08T02:17:36.221Z,1.00
2017-07-08T02:20:03.684Z,0.40
2017-07-08T02:22:30.993Z,0.40
2017-07-08T02:24:58.461Z,0.40
2017-07-08T02:27:25.795Z,0.90
2017-07-08T02:29:53.109Z,1.17
2017-07-08T02:32:20.403Z,0.40
2017-07-08T02:34:47.723Z,0.37
2017-07-08T02:37:15.026Z,0.37
2017-07-08T02:39:42.314Z,1.33
2017-07-08T02:42:09.641Z,0.63
2017-07-08T02:44:36.970Z,0.40
2017-07-08T02:47:04.277Z,0.60
2017-07-08T02:49:31.571Z,0.40
2017-07-08T02:51:59.114Z,0.50
2017-07-08T02:54:26.446Z,0.77
2017-07-08T02:56:53.762Z,1.53
2017-07-08T02:59:21.061Z,0.40
2017-07-08T03:01:48.386Z,27.83
2017-07-08T03:04:15.697Z,0.50
2017-07-08T03:06:43.035Z,0.40
2017-07-08T03:09:10.348Z,0.40
2017-07-08T03:11:37.658Z,0.40
2017-07-08T03:14:04.981Z,0.40
2017-07-08T03:16:32.305Z,0.40
2017-07-08T03:18:59.964Z,0.43
2017-07-08T03:21:27.307Z,3.47
2017-07-08T03:23:54.659Z,0.40
2017-07-08T03:26:21.971Z,0.40
2017-07-08T03:28:49.295Z,0.37
2017-07-08T03:31:16.774Z,0.40
2017-07-08T03:33:44.122Z,0.40
2017-07-08T03:36:11.458Z,0.40
2017-07-08T03:38:38.814Z,0.50
2017-07-08T03:41:06.142Z,0.37
2017-07-08T03:43:33.460Z,0.50
2017-07-08T03:46:00.759Z,0.60
2017-07-08T03:48:28.078Z,0.40
2017-07-08T03:50:55.368Z,0.97
2017-07-08T03:53:22.659Z,0.63
2017-07-08T03:55:49.996Z,0.90
2017-07-08T03:58:17.321Z,0.83
2017-07-08T04:00:44.982Z,0.60
2017-07-08T04:03:12.301Z,0.57
2017-07-08T04:05:39.613Z,0.40
2017-07-08T04:08:06.893Z,0.80
2017-07-08T04:10:34.241Z,2.87
2017-07-08T04:13:01.545Z,0.77
2017-07-08T04:15:29.120Z,0.40
2017-07-08T04:17:56.461Z,0.40
2017-07-08T04:20:23.808Z,0.60
2017-07-08T04:22:51.435Z,0.30
2017-07-08T04:25:18.731Z,0.30
2017-07-08T04:27:46.032Z,0.40
2017-07-08T04:30:13.369Z,0.40
2017-07-08T04:32:40.736Z,2.93
2017-07-08T04:35:08.050Z,0.40
2017-07-08T04:37:35.412Z,0.60
2017-07-08T04:40:02.735Z,0.40
2017-07-08T04:42:30.076Z,3.17
2017-07-08T04:44:57.355Z,0.87
2017-07-08T04:47:24.682Z,0.80
2017-07-08T04:49:52.021Z,0.50
2017-07-08T04:52:19.367Z,0.30
2017-07-08T04:54:46.683Z,0.40
2017-07-08T04:57:14.005Z,0.70
2017-07-08T04:59:41.359Z,0.33
2017-07-08T05:02:08.815Z,1.10
2017-07-08T05:04:36.118Z,1.43
2017-07-08T05:07:03.432Z,0.70
2017-07-08T05:09:30.769Z,0.67
2017-07-08T05:11:58.059Z,0.40
2017-07-08T05:14:25.368Z,0.50
2017-07-08T05:16:52.671Z,0.90
2017-07-08T05:19:19.995Z,0.50
2017-07-08T05:21:47.313Z,0.33
2017-07-08T05:24:14.615Z,0.70
2017-07-08T05:26:41.903Z,0.80
2017-07-08T05:29:09.245Z,0.97
2017-07-08T05:31:36.611Z,0.70
2017-07-08T05:34:03.927Z,0.50
2017-07-08T05:36:31.294Z,0.50
2017-07-08T05:38:58.589Z,0.50
2017-07-08T05:41:25.914Z,0.73
2017-07-08T05:43:53.198Z,1.33
2017-07-08T05:46:20.919Z,0.40
2017-07-08T05:48:49.183Z,0.40
2017-07-08T05:51:16.502Z,0.50
2017-07-08T05:53:43.812Z,0.40
2017-07-08T05:56:11.163Z,0.40
2017-07-08T05:58:38.471Z,0.80
2017-07-08T06:01:05.774Z,0.83
2017-07-08T06:03:33.231Z,0.50
2017-07-08T06:06:00.523Z,0.50
2017-07-08T06:08:27.842Z,0.40
2017-07-08T06:10:55.175Z,0.67
2017-07-08T06:13:22.482Z,0.60
2017-07-08T06:15:49.767Z,0.40
2017-07-08T06:18:17.099Z,0.87
2017-07-08T06:20:44.425Z,3.83
2017-07-08T06:23:11.749Z,1.33
2017-07-08T06:25:39.049Z,0.40
2017-07-08T06:28:06.379Z,0.60
2017-07-08T06:30:34.022Z,0.50
2017-07-08T06:33:01.316Z,0.40
2017-07-08T06:35:28.603Z,0.93
2017-07-08T06:37:55.929Z,0.70
2017-07-08T06:40:23.230Z,0.40
2017-07-08T06:42:50.528Z,0.50
2017-07-08T06:45:17.866Z,0.80
2017-07-08T06:47:45.437Z,0.60
2017-07-08T06:50:12.736Z,0.40
2017-07-08T06:52:40.082Z,0.93
2017-07-08T06:55:07.434Z,0.40
2017-07-08T06:57:34.759Z,0.40
2017-07-08T07:00:02.106Z,1.13
2017-07-08T07:02:29.430Z,0.60
2017-07-08T07:04:56.741Z,1.70
2017-07-08T07:07:24.032Z,0.60
2017-07-08T07:09:51.366Z,0.97
2017-07-08T07:12:18.698Z,0.50
2017-07-08T07:14:46.010Z,0.60
2017-07-08T07:17:13.313Z,0.40
2017-07-08T07:19:40.658Z,0.50
2017-07-08T07:22:07.963Z,0.73
2017-07-08T07:24:35.321Z,0.83
2017-07-08T07:27:03.576Z,0.53
2017-07-08T07:29:30.918Z,0.90
2017-07-08T07:31:58.259Z,0.80
2017-07-08T07:34:25.593Z,0.47
2017-07-08T07:36:52.901Z,1.03
2017-07-08T07:39:20.202Z,0.50
2017-07-08T07:41:47.529Z,0.50
2017-07-08T07:44:15.155Z,0.50
2017-07-08T07:46:42.613Z,0.53
2017-07-08T07:49:09.947Z,1.53
2017-07-08T07:51:37.286Z,3.33
2017-07-08T07:54:04.606Z,0.50
2017-07-08T07:56:31.979Z,0.80
2017-07-08T07:58:59.327Z,0.60
2017-07-08T08:01:26.636Z,1.63
2017-07-08T08:03:53.946Z,1.70
2017-07-08T08:06:21.246Z,1.03
2017-07-08T08:08:48.567Z,0.80
2017-07-08T08:11:15.873Z,11.30
2017-07-08T08:13:43.171Z,2.13
2017-07-08T08:16:10.486Z,0.83
2017-07-08T08:18:37.797Z,0.90
2017-07-08T08:21:05.094Z,2.10
2017-07-08T08:23:32.430Z,0.60
2017-07-08T08:25:59.751Z,0.60
2017-07-08T08:28:27.032Z,0.60
2017-07-08T08:30:54.424Z,3.23
2017-07-08T08:33:21.728Z,0.60
2017-07-08T08:35:49.058Z,1.00
2017-07-08T08:38:16.353Z,0.50
2017-07-08T08:40:43.683Z,0.60
2017-07-08T08:43:11.132Z,1.03
2017-07-08T08:45:38.442Z,0.70
2017-07-08T08:48:05.733Z,0.60
2017-07-08T08:50:33.063Z,1.53
2017-07-08T08:53:00.370Z,0.60
2017-07-08T08:55:27.682Z,2.20
2017-07-08T08:57:54.972Z,0.60
2017-07-08T09:00:22.288Z,0.70
2017-07-08T09:02:49.577Z,0.83
2017-07-08T09:05:16.901Z,0.60
2017-07-08T09:07:44.230Z,0.70
2017-07-08T09:10:11.509Z,0.60
2017-07-08T09:12:38.849Z,0.70
2017-07-08T09:15:06.145Z,1.63
2017-07-08T09:17:33.448Z,0.70
2017-07-08T09:20:00.739Z,0.70
2017-07-08T09:22:28.071Z,1.20
2017-07-08T09:24:55.387Z,4.50
2017-07-08T09:27:22.682Z,0.80
2017-07-08T09:29:50.006Z,0.60
2017-07-08T09:32:17.315Z,0.60
2017-07-08T09:34:44.635Z,0.60
2017-07-08T09:37:11.941Z,0.60
2017-07-08T09:39:39.271Z,3.03
2017-07-08T09:42:06.589Z,0.60
2017-07-08T09:44:33.914Z,1.17
2017-07-08T09:47:01.215Z,0.60
2017-07-08T09:49:28.523Z,0.90
2017-07-08T09:51:55.841Z,0.70
2017-07-08T09:54:23.136Z,0.60
2017-07-08T09:56:50.456Z,0.70
2017-07-08T09:59:17.766Z,0.63
2017-07-08T10:01:45.074Z,0.60
2017-07-08T10:04:12.396Z,0.60
2017-07-08T10:06:39.730Z,0.60
2017-07-08T10:09:07.045Z,1.30
2017-07-08T10:11:34.386Z,0.63
2017-07-08T10:14:01.722Z,1.73
2017-07-08T10:16:29.076Z,0.93
2017-07-08T10:18:56.398Z,0.60
2017-07-08T10:21:23.730Z,0.60
2017-07-08T10:23:51.024Z,0.73
2017-07-08T10:26:18.342Z,0.60
2017-07-08T10:28:45.650Z,0.73
2017-07-08T10:31:12.942Z,0.60
2017-07-08T10:33:40.248Z,0.60
2017-07-08T10:36:07.567Z,0.70
2017-07-08T10:38:35.038Z,0.80
2017-07-08T10:41:02.335Z,0.60
2017-07-08T10:43:29.628Z,0.63
2017-07-08T10:45:56.937Z,0.60
2017-07-08T10:48:24.259Z,2.43
2017-07-08T10:50:51.775Z,0.80
2017-07-08T10:53:19.299Z,0.60
2017-07-08T10:55:46.623Z,0.83
2017-07-08T10:58:13.907Z,0.60
2017-07-08T11:00:41.276Z,0.60
2017-07-08T11:03:08.592Z,0.60
2017-07-08T11:05:35.905Z,1.03
2017-07-08T11:08:03.208Z,0.60
2017-07-08T11:10:30.511Z,0.80
2017-07-08T11:12:57.845Z,0.70
2017-07-08T11:15:25.174Z,0.60
2017-07-08T11:17:52.501Z,0.60
2017-07-08T11:20:19.785Z,0.70
2017-07-08T11:22:47.152Z,0.60
2017-07-08T11:25:14.470Z,0.70
2017-07-08T11:27:42.590Z,0.60
2017-07-08T11:30:09.940Z,0.60
2017-07-08T11:32:37.284Z,0.70
2017-07-08T11:35:04.599Z,0.80
2017-07-08T11:37:31.897Z,0.60
2017-07-08T11:39:59.233Z,0.83
2017-07-08T11:42:26.576Z,0.60
2017-07-08T11:44:53.921Z,0.60
2017-07-08T11:47:21.208Z,0.60
2017-07-08T11:49:48.510Z,0.60
2017-07-08T11:52:15.834Z,0.60
2017-07-08T11:54:43.120Z,2.93
2017-07-08T11:57:10.464Z,0.60
2017-07-08T11:59:37.746Z,0.60
2017-07-08T12:02:05.072Z,0.70
2017-07-08T12:04:32.410Z,0.60
2017-07-08T12:06:59.882Z,0.60
2017-07-08T12:09:27.194Z,0.60
2017-07-08T12:11:54.516Z,0.60
2017-07-08T12:14:21.813Z,0.60
2017-07-08T12:16:49.429Z,0.70
2017-07-08T12:19:16.764Z,0.60
2017-07-08T12:21:44.059Z,0.60
2017-07-08T12:24:11.375Z,1.37
2017-07-08T12:26:38.734Z,0.80
2017-07-08T12:29:06.033Z,0.60
2017-07-08T12:31:33.343Z,1.53
2017-07-08T12:34:00.661Z,0.67
2017-07-08T12:36:27.957Z,0.60
2017-07-08T12:38:55.303Z,0.60
2017-07-08T12:41:22.625Z,0.60
2017-07-08T12:43:50.048Z,1.57
2017-07-08T12:46:17.355Z,0.80
2017-07-08T12:48:44.665Z,0.60
2017-07-08T12:51:11.972Z,0.60
2017-07-08T12:53:39.282Z,0.60
2017-07-08T12:56:06.600Z,0.70
2017-07-08T12:58:33.942Z,0.60
2017-07-08T13:01:02.076Z,0.60
2017-07-08T13:03:29.708Z,0.60
2017-07-08T13:05:57.034Z,0.60
2017-07-08T13:08:24.308Z,0.70
2017-07-08T13:10:51.669Z,0.70
2017-07-08T13:13:18.990Z,0.70
2017-07-08T13:15:46.358Z,0.80
2017-07-08T13:18:13.654Z,1.27
2017-07-08T13:20:40.976Z,0.60
2017-07-08T13:23:08.279Z,0.70
2017-07-08T13:25:35.610Z,0.80
2017-07-08T13:28:02.925Z,0.67
2017-07-08T13:30:31.201Z,0.60
2017-07-08T13:32:58.538Z,0.60
2017-07-08T13:35:25.885Z,0.60
2017-07-08T13:37:53.200Z,0.60
2017-07-08T13:40:20.504Z,0.97
2017-07-08T13:42:47.810Z,1.53
2017-07-08T13:45:15.155Z,0.60
2017-07-08T13:47:42.475Z,0.60
2017-07-08T13:50:09.784Z,0.90
2017-07-08T13:52:37.080Z,0.60
2017-07-08T13:55:04.615Z,0.60
2017-07-08T13:57:31.950Z,0.70
2017-07-08T13:59:59.312Z,0.60
2017-07-08T14:02:26.615Z,0.70
2017-07-08T14:04:53.953Z,0.60
2017-07-08T14:07:21.249Z,0.60
2017-07-08T14:09:48.583Z,0.90
2017-07-08T14:12:15.892Z,0.60
2017-07-08T14:14:43.221Z,0.60
2017-07-08T14:17:10.533Z,0.60
2017-07-08T14:19:37.829Z,0.80
2017-07-08T14:22:05.176Z,0.80
2017-07-08T14:24:32.487Z,0.70
2017-07-08T14:27:00.078Z,0.67
2017-07-08T14:29:27.385Z,0.60
2017-07-08T14:31:54.737Z,0.60
2017-07-08T14:34:22.339Z,0.97
2017-07-08T14:36:49.667Z,0.70
2017-07-08T14:39:17.245Z,0.60
2017-07-08T14:41:44.537Z,0.60
2017-07-08T14:44:11.857Z,0.60
2017-07-08T14:46:39.195Z,0.60
2017-07-08T14:49:06.560Z,0.90
2017-07-08T14:51:33.970Z,4.87
2017-07-08T14:54:01.313Z,5.43
2017-07-08T14:56:28.643Z,5.20
2017-07-08T14:58:55.950Z,5.90
2017-07-08T15:01:23.422Z,5.10
2017-07-08T15:03:50.733Z,6.30
2017-07-08T15:06:18.038Z,5.63
2017-07-08T15:08:45.381Z,4.90
2017-07-08T15:11:12.695Z,4.80
2017-07-08T15:13:40.019Z,5.90
2017-07-08T15:16:07.310Z,4.50
2017-07-08T15:18:35.103Z,5.00
2017-07-08T15:21:02.402Z,4.57
2017-07-08T15:23:30.146Z,4.63
2017-07-08T15:25:57.472Z,4.73
2017-07-08T15:28:24.796Z,5.93
2017-07-08T15:30:52.121Z,4.23
2017-07-08T15:33:19.590Z,4.90
2017-07-08T15:35:46.968Z,4.77
2017-07-08T15:38:14.279Z,4.57
2017-07-08T15:40:41.653Z,4.50
2017-07-08T15:43:08.959Z,4.27
2017-07-08T15:45:36.321Z,4.40
2017-07-08T15:48:03.620Z,5.70
2017-07-08T15:50:30.946Z,5.20
2017-07-08T15:52:58.269Z,4.80
2017-07-08T15:55:25.581Z,4.93
2017-07-08T15:57:52.903Z,4.83
2017-07-08T16:00:20.302Z,4.70
2017-07-08T16:02:47.699Z,5.00
2017-07-08T16:05:15.010Z,5.93
2017-07-08T16:07:42.301Z,4.67
2017-07-08T16:10:09.603Z,4.80
2017-07-08T16:12:36.942Z,4.60
2017-07-08T16:15:04.276Z,6.57
2017-07-08T16:17:31.629Z,4.60
2017-07-08T16:19:58.963Z,5.17
2017-07-08T16:22:26.286Z,5.47
2017-07-08T16:24:53.613Z,4.87
2017-07-08T16:27:21.888Z,5.37
2017-07-08T16:29:49.160Z,4.97
2017-07-08T16:32:16.499Z,4.40
2017-07-08T16:34:43.793Z,5.00
2017-07-08T16:37:11.109Z,4.60
2017-07-08T16:39:38.412Z,6.50
2017-07-08T16:42:05.749Z,6.80
2017-07-08T16:44:33.045Z,5.40
2017-07-08T16:47:00.335Z,5.30
2017-07-08T16:49:27.677Z,5.40
2017-07-08T16:51:55.017Z,4.77
2017-07-08T16:54:22.389Z,4.50
2017-07-08T16:56:49.680Z,5.37
2017-07-08T16:59:17.030Z,6.83
2017-07-08T17:01:44.377Z,5.30
2017-07-08T17:04:11.731Z,7.30
2017-07-08T17:06:39.355Z,5.87
2017-07-08T17:09:06.668Z,5.03
2017-07-08T17:11:33.964Z,6.60
2017-07-08T17:14:01.305Z,6.20
2017-07-08T17:16:28.635Z,6.83
2017-07-08T17:18:55.985Z,6.40
2017-07-08T17:21:23.295Z,7.63
2017-07-08T17:23:50.618Z,8.37
2017-07-08T17:26:17.938Z,8.50
2017-07-08T17:28:45.239Z,8.93
2017-07-08T17:31:12.551Z,7.10
2017-07-08T17:33:39.855Z,8.17
2017-07-08T17:36:07.169Z,7.83
2017-07-08T17:38:34.481Z,7.57
2017-07-08T17:41:01.807Z,12.57
2017-07-08T17:43:29.118Z,24.77
2017-07-08T17:45:56.445Z,14.23
2017-07-08T17:48:23.766Z,14.73
2017-07-08T17:50:51.126Z,15.17
2017-07-08T17:53:18.430Z,14.20
2017-07-08T17:55:45.788Z,16.90
2017-07-08T17:58:13.117Z,13.47
2017-07-08T18:00:40.415Z,19.50
2017-07-08T18:03:07.752Z,11.57
2017-07-08T18:05:35.069Z,13.50
2017-07-08T18:08:02.417Z,13.03
2017-07-08T18:10:29.754Z,16.27
2017-07-08T18:12:57.098Z,16.93
2017-07-08T18:15:24.443Z,12.40
2017-07-08T18:17:51.781Z,14.07
2017-07-08T18:20:19.106Z,14.10
2017-07-08T18:22:46.469Z,15.50
2017-07-08T18:25:13.778Z,14.43
2017-07-08T18:27:41.143Z,14.73
2017-07-08T18:30:08.455Z,15.43
2017-07-08T18:32:35.806Z,13.90
2017-07-08T18:35:03.151Z,14.20
2017-07-08T18:37:30.485Z,14.77
2017-07-08T18:39:57.858Z,14.80
2017-07-08T18:42:25.161Z,15.70
2017-07-08T18:44:52.487Z,13.77
2017-07-08T18:47:19.830Z,15.30
2017-07-08T18:49:47.166Z,13.83
2017-07-08T18:52:14.487Z,17.30
2017-07-08T18:54:41.824Z,15.70
2017-07-08T18:57:09.156Z,14.80
2017-07-08T18:59:36.468Z,17.30
2017-07-08T19:02:03.818Z,15.97
2017-07-08T19:04:31.142Z,15.20
2017-07-08T19:06:58.522Z,15.97
2017-07-08T19:09:25.847Z,19.33
2017-07-08T19:11:53.219Z,21.03
2017-07-08T19:14:20.516Z,20.33
2017-07-08T19:16:47.853Z,20.37
2017-07-08T19:19:15.197Z,18.30
2017-07-08T19:21:42.535Z,17.60
2017-07-08T19:24:09.901Z,21.03
2017-07-08T19:26:37.208Z,16.23
2017-07-08T19:29:04.629Z,19.20
2017-07-08T19:31:32.102Z,15.27
2017-07-08T19:33:59.457Z,22.30
2017-07-08T19:36:26.792Z,17.17
2017-07-08T19:38:54.132Z,16.43
2017-07-08T19:41:21.484Z,17.43
2017-07-08T19:43:48.809Z,18.40
2017-07-08T19:46:16.436Z,19.50
2017-07-08T19:48:43.824Z,19.40
2017-07-08T19:51:11.137Z,21.47
2017-07-08T19:53:38.469Z,23.20
2017-07-08T19:56:05.767Z,19.90
2017-07-08T19:58:33.111Z,20.53
2017-07-08T20:01:00.431Z,20.77
2017-07-08T20:03:27.774Z,21.37
2017-07-08T20:05:55.090Z,19.17
2017-07-08T20:08:22.430Z,19.10
2017-07-08T20:10:49.797Z,21.10
2017-07-08T20:13:17.110Z,19.50
2017-07-08T20:15:44.472Z,17.60
2017-07-08T20:18:11.802Z,17.63
2017-07-08T20:20:39.157Z,18.40
2017-07-08T20:23:06.478Z,15.10
2017-07-08T20:25:33.800Z,17.43
2017-07-08T20:28:01.121Z,15.13
2017-07-08T20:30:28.437Z,17.60
2017-07-08T20:32:55.780Z,15.90
2017-07-08T20:35:24.003Z,17.30
2017-07-08T20:37:51.332Z,16.83
2017-07-08T20:40:18.692Z,16.70
2017-07-08T20:42:46.018Z,13.90
2017-07-08T20:45:13.344Z,19.57
2017-07-08T20:47:40.640Z,17.23
2017-07-08T20:50:07.984Z,16.27
2017-07-08T20:52:35.295Z,15.37
2017-07-08T20:55:02.671Z,18.13
2017-07-08T20:57:30.007Z,17.37
2017-07-08T20:59:57.313Z,17.33
2017-07-08T21:02:24.874Z,16.67
2017-07-08T21:04:52.257Z,17.73
2017-07-08T21:07:19.607Z,18.17
2017-07-08T21:09:46.915Z,23.73
2017-07-08T21:12:14.222Z,21.40
2017-07-08T21:14:41.586Z,19.90
2017-07-08T21:17:08.892Z,25.00
2017-07-08T21:19:36.232Z,21.87
2017-07-08T21:22:03.539Z,21.73
2017-07-08T21:24:30.890Z,19.17
2017-07-08T21:26:58.201Z,29.53
2017-07-08T21:29:25.516Z,21.60
2017-07-08T21:31:52.861Z,24.53
2017-07-08T21:34:20.521Z,24.67
2017-07-08T21:36:47.860Z,24.00
2017-07-08T21:39:15.163Z,24.37
2017-07-08T21:41:42.560Z,26.77
2017-07-08T21:44:09.866Z,21.40
2017-07-08T21:46:37.179Z,25.17
2017-07-08T21:49:04.519Z,22.23
2017-07-08T21:51:31.837Z,25.20
2017-07-08T21:53:59.256Z,24.30
2017-07-08T21:56:26.587Z,24.37
2017-07-08T21:58:53.884Z,23.23
2017-07-08T22:01:21.212Z,27.53
2017-07-08T22:03:48.523Z,26.27
2017-07-08T22:06:15.838Z,25.53
2017-07-08T22:08:43.161Z,23.20
2017-07-08T22:11:10.558Z,24.77
2017-07-08T22:13:37.861Z,25.57
2017-07-08T22:16:06.107Z,23.60
2017-07-08T22:18:33.495Z,24.30
2017-07-08T22:21:00.793Z,24.80
2017-07-08T22:23:28.163Z,23.87
2017-07-08T22:25:55.473Z,22.80
2017-07-08T22:28:22.846Z,26.00
2017-07-08T22:30:50.173Z,23.80
2017-07-08T22:33:17.490Z,24.93
2017-07-08T22:35:44.864Z,22.70
2017-07-08T22:38:12.169Z,25.40
2017-07-08T22:40:39.518Z,24.17
2017-07-08T22:43:07.032Z,25.53
2017-07-08T22:45:34.382Z,24.57
2017-07-08T22:48:01.706Z,23.60
2017-07-08T22:50:29.045Z,23.27
2017-07-08T22:52:56.388Z,21.63
2017-07-08T22:55:23.679Z,24.80
2017-07-08T22:57:51.020Z,24.93
2017-07-08T23:00:18.346Z,25.90
2017-07-08T23:02:45.734Z,25.33
2017-07-08T23:05:13.052Z,23.50
2017-07-08T23:07:40.396Z,24.10
2017-07-08T23:10:07.709Z,23.00
2017-07-08T23:12:35.087Z,27.60
2017-07-08T23:15:02.401Z,26.73
2017-07-08T23:17:29.696Z,25.50
2017-07-08T23:19:57.026Z,25.10
2017-07-08T23:22:24.332Z,28.60
2017-07-08T23:24:51.670Z,26.23
2017-07-08T23:27:19.010Z,24.40
2017-07-08T23:29:46.384Z,28.40
2017-07-08T23:32:13.689Z,25.20
2017-07-08T23:34:40.998Z,25.93
2017-07-08T23:37:08.319Z,27.40
2017-07-08T23:39:35.683Z,28.20
2017-07-08T23:42:03.020Z,26.50
2017-07-08T23:44:30.776Z,28.70
2017-07-08T23:46:58.130Z,24.87
2017-07-08T23:49:25.433Z,27.67
2017-07-08T23:51:52.763Z,25.43
2017-07-08T23:54:20.114Z,26.40
2017-07-08T23:56:47.424Z,27.27
2017-07-08T23:59:14.810Z,24.80
